sensor_id;sensor_type;location;lat;lon;timestamp;P1;durP1;ratioP1;P2;durP2;ratioP2
74291;SDS011;62687;55.738;37.516;2023-03-19T00:02:01;5.97;;;2.00;;
74291;SDS011;62687;55.738;37.516;2023-03-19T00:04:45;5.57;;;2.20;;
74291;SDS011;62687;55.738;37.516;2023-03-19T00:07:30;7.28;;;2.60;;
74291;SDS011;62687;55.738;37.516;2023-03-19T00:10:14;6.55;;;2.28;;
74291;SDS011;62687;55.738;37.516;2023-03-19T00:12:58;6.13;;;1.70;;
74291;SDS011;62687;55.738;37.516;2023-03-19T00:15:43;6.97;;;2.05;;
74291;SDS011;62687;55.738;37.516;2023-03-19T00:18:27;5.47;;;2.00;;
74291;SDS011;62687;55.738;37.516;2023-03-19T00:21:11;6.45;;;2.30;;
74291;SDS011;62687;55.738;37.516;2023-03-19T00:23:56;4.20;;;1.77;;
74291;SDS011;62687;55.738;37.516;2023-03-19T00:26:44;6.15;;;1.90;;
74291;SDS011;62687;55.738;37.516;2023-03-19T00:29:29;6.78;;;1.60;;
74291;SDS011;62687;55.738;37.516;2023-03-19T00:32:13;4.30;;;1.80;;
74291;SDS011;62687;55.738;37.516;2023-03-19T00:34:58;6.25;;;2.40;;
74291;SDS011;62687;55.738;37.516;2023-03-19T00:37:42;5.95;;;2.08;;
74291;SDS011;62687;55.738;37.516;2023-03-19T00:40:26;3.35;;;1.60;;
74291;SDS011;62687;55.738;37.516;2023-03-19T00:43:10;5.93;;;2.10;;
74291;SDS011;62687;55.738;37.516;2023-03-19T00:45:54;7.30;;;1.73;;
74291;SDS011;62687;55.738;37.516;2023-03-19T00:48:39;5.55;;;2.05;;
74291;SDS011;62687;55.738;37.516;2023-03-19T00:51:23;6.93;;;2.78;;
74291;SDS011;62687;55.738;37.516;2023-03-19T00:56:56;3.97;;;1.75;;
74291;SDS011;62687;55.738;37.516;2023-03-19T00:59:40;5.25;;;1.73;;
74291;SDS011;62687;55.738;37.516;2023-03-19T01:02:25;5.75;;;1.63;;
74291;SDS011;62687;55.738;37.516;2023-03-19T01:05:09;2.97;;;1.45;;
74291;SDS011;62687;55.738;37.516;2023-03-19T01:07:53;3.90;;;1.80;;
74291;SDS011;62687;55.738;37.516;2023-03-19T01:10:37;5.13;;;1.83;;
74291;SDS011;62687;55.738;37.516;2023-03-19T01:13:21;5.55;;;1.90;;
74291;SDS011;62687;55.738;37.516;2023-03-19T01:16:05;4.20;;;1.67;;
74291;SDS011;62687;55.738;37.516;2023-03-19T01:18:50;4.03;;;1.50;;
74291;SDS011;62687;55.738;37.516;2023-03-19T01:21:34;3.42;;;1.80;;
74291;SDS011;62687;55.738;37.516;2023-03-19T01:24:19;4.97;;;1.85;;
74291;SDS011;62687;55.738;37.516;2023-03-19T01:27:04;4.63;;;1.92;;
74291;SDS011;62687;55.738;37.516;2023-03-19T01:29:49;3.85;;;1.70;;
74291;SDS011;62687;55.738;37.516;2023-03-19T01:32:33;3.58;;;1.33;;
74291;SDS011;62687;55.738;37.516;2023-03-19T01:35:17;4.53;;;1.83;;
74291;SDS011;62687;55.738;37.516;2023-03-19T01:38:01;5.95;;;1.88;;
74291;SDS011;62687;55.738;37.516;2023-03-19T01:40:45;4.25;;;1.55;;
74291;SDS011;62687;55.738;37.516;2023-03-19T01:43:30;3.78;;;1.70;;
74291;SDS011;62687;55.738;37.516;2023-03-19T01:46:20;4.47;;;1.67;;
74291;SDS011;62687;55.738;37.516;2023-03-19T01:49:11;3.63;;;1.52;;
74291;SDS011;62687;55.738;37.516;2023-03-19T01:51:56;4.43;;;1.70;;
74291;SDS011;62687;55.738;37.516;2023-03-19T01:54:43;6.93;;;2.00;;
74291;SDS011;62687;55.738;37.516;2023-03-19T01:57:29;2.67;;;1.52;;
74291;SDS011;62687;55.738;37.516;2023-03-19T02:00:14;4.13;;;1.60;;
74291;SDS011;62687;55.738;37.516;2023-03-19T02:02:59;5.80;;;2.15;;
74291;SDS011;62687;55.738;37.516;2023-03-19T02:05:45;7.13;;;1.73;;
74291;SDS011;62687;55.738;37.516;2023-03-19T02:08:30;5.05;;;1.73;;
74291;SDS011;62687;55.738;37.516;2023-03-19T02:11:17;5.70;;;1.40;;
74291;SDS011;62687;55.738;37.516;2023-03-19T02:14:02;3.53;;;1.55;;
74291;SDS011;62687;55.738;37.516;2023-03-19T02:16:46;3.95;;;1.60;;
74291;SDS011;62687;55.738;37.516;2023-03-19T02:19:35;5.32;;;2.25;;
74291;SDS011;62687;55.738;37.516;2023-03-19T02:22:28;6.72;;;2.00;;
74291;SDS011;62687;55.738;37.516;2023-03-19T02:25:32;9.13;;;2.10;;
74291;SDS011;62687;55.738;37.516;2023-03-19T02:28:19;7.65;;;1.73;;
74291;SDS011;62687;55.738;37.516;2023-03-19T02:31:05;4.18;;;1.67;;
74291;SDS011;62687;55.738;37.516;2023-03-19T02:34:01;5.82;;;1.95;;
74291;SDS011;62687;55.738;37.516;2023-03-19T02:36:48;8.10;;;1.55;;
74291;SDS011;62687;55.738;37.516;2023-03-19T02:39:38;4.00;;;1.80;;
74291;SDS011;62687;55.738;37.516;2023-03-19T02:42:30;7.50;;;1.90;;
74291;SDS011;62687;55.738;37.516;2023-03-19T02:45:17;4.07;;;1.77;;
74291;SDS011;62687;55.738;37.516;2023-03-19T02:48:02;5.75;;;2.17;;
74291;SDS011;62687;55.738;37.516;2023-03-19T02:50:46;4.60;;;2.05;;
74291;SDS011;62687;55.738;37.516;2023-03-19T02:53:30;5.70;;;2.00;;
74291;SDS011;62687;55.738;37.516;2023-03-19T02:56:14;6.07;;;2.20;;
74291;SDS011;62687;55.738;37.516;2023-03-19T02:58:47;6.50;;;1.67;;
74291;SDS011;62687;55.738;37.516;2023-03-19T03:01:31;8.63;;;2.67;;
74291;SDS011;62687;55.738;37.516;2023-03-19T03:04:15;6.70;;;2.15;;
74291;SDS011;62687;55.738;37.516;2023-03-19T03:06:59;6.15;;;2.00;;
74291;SDS011;62687;55.738;37.516;2023-03-19T03:09:43;6.90;;;2.00;;
74291;SDS011;62687;55.738;37.516;2023-03-19T03:12:27;7.60;;;2.15;;
74291;SDS011;62687;55.738;37.516;2023-03-19T03:15:12;4.60;;;1.90;;
74291;SDS011;62687;55.738;37.516;2023-03-19T03:17:56;7.15;;;2.22;;
74291;SDS011;62687;55.738;37.516;2023-03-19T03:20:40;6.05;;;2.30;;
74291;SDS011;62687;55.738;37.516;2023-03-19T03:23:25;5.75;;;2.13;;
74291;SDS011;62687;55.738;37.516;2023-03-19T03:26:10;7.20;;;2.20;;
74291;SDS011;62687;55.738;37.516;2023-03-19T03:28:54;5.95;;;2.60;;
74291;SDS011;62687;55.738;37.516;2023-03-19T03:31:39;6.65;;;2.53;;
74291;SDS011;62687;55.738;37.516;2023-03-19T03:34:23;7.88;;;2.38;;
74291;SDS011;62687;55.738;37.516;2023-03-19T03:37:07;7.00;;;2.53;;
74291;SDS011;62687;55.738;37.516;2023-03-19T03:39:51;10.35;;;2.63;;
74291;SDS011;62687;55.738;37.516;2023-03-19T03:42:36;5.32;;;2.63;;
74291;SDS011;62687;55.738;37.516;2023-03-19T03:45:20;7.65;;;2.53;;
74291;SDS011;62687;55.738;37.516;2023-03-19T03:48:04;5.68;;;2.17;;
74291;SDS011;62687;55.738;37.516;2023-03-19T03:50:48;5.32;;;2.33;;
74291;SDS011;62687;55.738;37.516;2023-03-19T03:53:33;8.20;;;2.40;;
74291;SDS011;62687;55.738;37.516;2023-03-19T03:56:17;6.72;;;2.60;;
74291;SDS011;62687;55.738;37.516;2023-03-19T03:59:01;14.32;;;3.00;;
74291;SDS011;62687;55.738;37.516;2023-03-19T04:01:46;5.55;;;2.97;;
74291;SDS011;62687;55.738;37.516;2023-03-19T04:04:30;7.80;;;2.63;;
74291;SDS011;62687;55.738;37.516;2023-03-19T04:07:14;5.70;;;2.33;;
74291;SDS011;62687;55.738;37.516;2023-03-19T04:09:58;5.57;;;2.78;;
74291;SDS011;62687;55.738;37.516;2023-03-19T04:12:43;7.57;;;3.15;;
74291;SDS011;62687;55.738;37.516;2023-03-19T04:15:28;7.60;;;2.63;;
74291;SDS011;62687;55.738;37.516;2023-03-19T04:18:12;14.65;;;3.03;;
74291;SDS011;62687;55.738;37.516;2023-03-19T04:20:56;9.73;;;2.47;;
74291;SDS011;62687;55.738;37.516;2023-03-19T04:23:41;6.40;;;2.63;;
74291;SDS011;62687;55.738;37.516;2023-03-19T04:26:25;6.95;;;2.92;;
74291;SDS011;62687;55.738;37.516;2023-03-19T04:29:09;6.28;;;2.55;;
74291;SDS011;62687;55.738;37.516;2023-03-19T04:31:53;8.30;;;2.63;;
74291;SDS011;62687;55.738;37.516;2023-03-19T04:34:37;7.43;;;2.90;;
74291;SDS011;62687;55.738;37.516;2023-03-19T04:37:21;8.30;;;2.70;;
74291;SDS011;62687;55.738;37.516;2023-03-19T04:40:05;6.40;;;2.42;;
74291;SDS011;62687;55.738;37.516;2023-03-19T04:42:49;7.47;;;3.00;;
74291;SDS011;62687;55.738;37.516;2023-03-19T04:45:33;6.40;;;2.60;;
74291;SDS011;62687;55.738;37.516;2023-03-19T04:48:18;8.18;;;2.40;;
74291;SDS011;62687;55.738;37.516;2023-03-19T04:51:02;5.63;;;2.08;;
74291;SDS011;62687;55.738;37.516;2023-03-19T04:53:46;6.25;;;3.25;;
74291;SDS011;62687;55.738;37.516;2023-03-19T04:56:31;6.20;;;2.45;;
74291;SDS011;62687;55.738;37.516;2023-03-19T04:59:15;5.82;;;2.50;;
74291;SDS011;62687;55.738;37.516;2023-03-19T05:01:59;4.80;;;2.47;;
74291;SDS011;62687;55.738;37.516;2023-03-19T05:04:44;5.65;;;2.40;;
74291;SDS011;62687;55.738;37.516;2023-03-19T05:07:28;6.28;;;1.98;;
74291;SDS011;62687;55.738;37.516;2023-03-19T05:10:12;8.93;;;2.47;;
74291;SDS011;62687;55.738;37.516;2023-03-19T05:12:56;6.65;;;1.85;;
74291;SDS011;62687;55.738;37.516;2023-03-19T05:15:41;5.03;;;2.28;;
74291;SDS011;62687;55.738;37.516;2023-03-19T05:18:26;7.72;;;2.50;;
74291;SDS011;62687;55.738;37.516;2023-03-19T05:23:56;6.72;;;2.20;;
74291;SDS011;62687;55.738;37.516;2023-03-19T05:26:41;6.03;;;2.40;;
74291;SDS011;62687;55.738;37.516;2023-03-19T05:29:25;4.03;;;2.20;;
74291;SDS011;62687;55.738;37.516;2023-03-19T05:32:10;10.65;;;2.13;;
74291;SDS011;62687;55.738;37.516;2023-03-19T05:34:53;7.22;;;2.17;;
74291;SDS011;62687;55.738;37.516;2023-03-19T05:37:37;5.75;;;2.70;;
74291;SDS011;62687;55.738;37.516;2023-03-19T05:40:21;5.95;;;2.42;;
74291;SDS011;62687;55.738;37.516;2023-03-19T05:43:07;10.05;;;2.78;;
74291;SDS011;62687;55.738;37.516;2023-03-19T05:45:52;5.35;;;2.45;;
74291;SDS011;62687;55.738;37.516;2023-03-19T05:48:36;7.07;;;2.78;;
74291;SDS011;62687;55.738;37.516;2023-03-19T05:51:20;10.55;;;2.90;;
74291;SDS011;62687;55.738;37.516;2023-03-19T05:54:04;9.38;;;2.63;;
74291;SDS011;62687;55.738;37.516;2023-03-19T05:56:48;9.90;;;3.42;;
74291;SDS011;62687;55.738;37.516;2023-03-19T05:59:32;5.30;;;2.80;;
74291;SDS011;62687;55.738;37.516;2023-03-19T06:02:17;13.15;;;2.97;;
74291;SDS011;62687;55.738;37.516;2023-03-19T06:05:01;6.03;;;2.42;;
74291;SDS011;62687;55.738;37.516;2023-03-19T06:07:46;5.10;;;2.78;;
74291;SDS011;62687;55.738;37.516;2023-03-19T06:10:31;7.20;;;2.55;;
74291;SDS011;62687;55.738;37.516;2023-03-19T06:13:17;10.60;;;3.03;;
74291;SDS011;62687;55.738;37.516;2023-03-19T06:16:00;5.13;;;2.30;;
74291;SDS011;62687;55.738;37.516;2023-03-19T06:18:45;8.25;;;2.83;;
74291;SDS011;62687;55.738;37.516;2023-03-19T06:21:30;4.75;;;2.10;;
74291;SDS011;62687;55.738;37.516;2023-03-19T06:24:14;4.20;;;1.92;;
74291;SDS011;62687;55.738;37.516;2023-03-19T06:26:58;5.47;;;2.03;;
74291;SDS011;62687;55.738;37.516;2023-03-19T06:29:42;4.22;;;1.95;;
74291;SDS011;62687;55.738;37.516;2023-03-19T06:32:26;7.70;;;2.42;;
74291;SDS011;62687;55.738;37.516;2023-03-19T06:35:10;8.02;;;2.42;;
74291;SDS011;62687;55.738;37.516;2023-03-19T06:37:54;8.18;;;2.08;;
74291;SDS011;62687;55.738;37.516;2023-03-19T06:40:38;5.60;;;2.08;;
74291;SDS011;62687;55.738;37.516;2023-03-19T06:43:22;10.60;;;2.40;;
74291;SDS011;62687;55.738;37.516;2023-03-19T06:46:07;6.63;;;2.05;;
74291;SDS011;62687;55.738;37.516;2023-03-19T06:48:52;6.82;;;2.10;;
74291;SDS011;62687;55.738;37.516;2023-03-19T06:51:36;7.60;;;2.25;;
74291;SDS011;62687;55.738;37.516;2023-03-19T06:54:20;8.05;;;2.30;;
74291;SDS011;62687;55.738;37.516;2023-03-19T06:57:05;4.90;;;1.60;;
74291;SDS011;62687;55.738;37.516;2023-03-19T06:59:48;11.05;;;2.28;;
74291;SDS011;62687;55.738;37.516;2023-03-19T07:02:33;6.68;;;1.75;;
74291;SDS011;62687;55.738;37.516;2023-03-19T07:05:18;6.15;;;2.25;;
74291;SDS011;62687;55.738;37.516;2023-03-19T07:08:02;5.47;;;2.38;;
74291;SDS011;62687;55.738;37.516;2023-03-19T07:10:46;4.68;;;2.15;;
74291;SDS011;62687;55.738;37.516;2023-03-19T07:13:30;10.52;;;2.30;;
74291;SDS011;62687;55.738;37.516;2023-03-19T07:16:15;8.02;;;2.25;;
74291;SDS011;62687;55.738;37.516;2023-03-19T07:18:59;4.97;;;2.08;;
74291;SDS011;62687;55.738;37.516;2023-03-19T07:21:44;6.40;;;1.77;;
74291;SDS011;62687;55.738;37.516;2023-03-19T07:24:29;6.72;;;2.20;;
74291;SDS011;62687;55.738;37.516;2023-03-19T07:27:13;6.07;;;1.75;;
74291;SDS011;62687;55.738;37.516;2023-03-19T07:29:57;5.00;;;2.03;;
74291;SDS011;62687;55.738;37.516;2023-03-19T07:32:42;4.00;;;1.85;;
74291;SDS011;62687;55.738;37.516;2023-03-19T07:35:26;4.13;;;2.20;;
74291;SDS011;62687;55.738;37.516;2023-03-19T07:38:10;3.67;;;1.65;;
74291;SDS011;62687;55.738;37.516;2023-03-19T07:40:54;9.40;;;2.60;;
74291;SDS011;62687;55.738;37.516;2023-03-19T07:43:38;17.00;;;2.60;;
74291;SDS011;62687;55.738;37.516;2023-03-19T07:46:22;8.25;;;2.60;;
74291;SDS011;62687;55.738;37.516;2023-03-19T07:49:07;9.93;;;2.70;;
74291;SDS011;62687;55.738;37.516;2023-03-19T07:51:51;6.10;;;2.92;;
74291;SDS011;62687;55.738;37.516;2023-03-19T07:54:35;4.32;;;2.15;;
74291;SDS011;62687;55.738;37.516;2023-03-19T07:57:20;8.20;;;2.80;;
74291;SDS011;62687;55.738;37.516;2023-03-19T08:00:04;12.93;;;2.38;;
74291;SDS011;62687;55.738;37.516;2023-03-19T08:02:49;11.35;;;2.53;;
74291;SDS011;62687;55.738;37.516;2023-03-19T08:05:34;7.50;;;2.30;;
74291;SDS011;62687;55.738;37.516;2023-03-19T08:08:18;5.10;;;2.40;;
74291;SDS011;62687;55.738;37.516;2023-03-19T08:11:02;3.85;;;1.90;;
74291;SDS011;62687;55.738;37.516;2023-03-19T08:13:47;14.43;;;3.63;;
74291;SDS011;62687;55.738;37.516;2023-03-19T08:16:31;8.15;;;3.15;;
74291;SDS011;62687;55.738;37.516;2023-03-19T08:19:16;18.88;;;3.70;;
74291;SDS011;62687;55.738;37.516;2023-03-19T08:22:01;10.55;;;3.22;;
74291;SDS011;62687;55.738;37.516;2023-03-19T08:24:46;5.97;;;2.72;;
74291;SDS011;62687;55.738;37.516;2023-03-19T08:27:30;7.80;;;2.92;;
74291;SDS011;62687;55.738;37.516;2023-03-19T08:30:14;9.88;;;2.78;;
74291;SDS011;62687;55.738;37.516;2023-03-19T08:32:59;7.63;;;3.03;;
74291;SDS011;62687;55.738;37.516;2023-03-19T08:35:43;6.15;;;2.83;;
74291;SDS011;62687;55.738;37.516;2023-03-19T08:38:28;9.30;;;2.80;;
74291;SDS011;62687;55.738;37.516;2023-03-19T08:41:12;9.10;;;3.03;;
74291;SDS011;62687;55.738;37.516;2023-03-19T08:43:56;8.45;;;2.55;;
74291;SDS011;62687;55.738;37.516;2023-03-19T08:46:40;11.43;;;3.67;;
74291;SDS011;62687;55.738;37.516;2023-03-19T08:49:25;14.38;;;2.78;;
74291;SDS011;62687;55.738;37.516;2023-03-19T08:52:09;11.00;;;2.88;;
74291;SDS011;62687;55.738;37.516;2023-03-19T08:54:53;9.18;;;3.67;;
74291;SDS011;62687;55.738;37.516;2023-03-19T08:57:37;9.82;;;4.05;;
74291;SDS011;62687;55.738;37.516;2023-03-19T09:00:21;14.43;;;4.53;;
74291;SDS011;62687;55.738;37.516;2023-03-19T09:03:06;11.43;;;3.65;;
74291;SDS011;62687;55.738;37.516;2023-03-19T09:05:50;14.98;;;4.35;;
74291;SDS011;62687;55.738;37.516;2023-03-19T09:08:34;12.73;;;3.53;;
74291;SDS011;62687;55.738;37.516;2023-03-19T09:11:20;12.65;;;3.92;;
74291;SDS011;62687;55.738;37.516;2023-03-19T09:14:06;8.50;;;2.97;;
74291;SDS011;62687;55.738;37.516;2023-03-19T09:16:50;11.90;;;4.20;;
74291;SDS011;62687;55.738;37.516;2023-03-19T09:19:35;15.88;;;4.40;;
74291;SDS011;62687;55.738;37.516;2023-03-19T09:22:19;10.15;;;3.97;;
74291;SDS011;62687;55.738;37.516;2023-03-19T09:25:04;8.85;;;3.50;;
74291;SDS011;62687;55.738;37.516;2023-03-19T09:27:49;9.70;;;3.85;;
74291;SDS011;62687;55.738;37.516;2023-03-19T09:30:34;10.27;;;3.60;;
74291;SDS011;62687;55.738;37.516;2023-03-19T09:33:18;14.45;;;3.88;;
74291;SDS011;62687;55.738;37.516;2023-03-19T09:36:04;13.95;;;4.57;;
74291;SDS011;62687;55.738;37.516;2023-03-19T09:38:48;12.50;;;4.22;;
74291;SDS011;62687;55.738;37.516;2023-03-19T09:41:46;7.32;;;3.80;;
74291;SDS011;62687;55.738;37.516;2023-03-19T09:44:43;11.20;;;4.20;;
74291;SDS011;62687;55.738;37.516;2023-03-19T09:47:29;12.07;;;3.35;;
74291;SDS011;62687;55.738;37.516;2023-03-19T09:50:18;17.27;;;4.28;;
74291;SDS011;62687;55.738;37.516;2023-03-19T09:55:50;7.03;;;3.40;;
74291;SDS011;62687;55.738;37.516;2023-03-19T09:58:36;12.18;;;4.47;;
74291;SDS011;62687;55.738;37.516;2023-03-19T10:01:25;9.75;;;3.75;;
74291;SDS011;62687;55.738;37.516;2023-03-19T10:17:29;11.50;;;4.20;;
74291;SDS011;62687;55.738;37.516;2023-03-19T10:26:25;10.15;;;4.05;;
74291;SDS011;62687;55.738;37.516;2023-03-19T10:29:19;9.65;;;3.65;;
74291;SDS011;62687;55.738;37.516;2023-03-19T10:35:06;8.48;;;3.63;;
74291;SDS011;62687;55.738;37.516;2023-03-19T10:38:06;11.55;;;3.63;;
74291;SDS011;62687;55.738;37.516;2023-03-19T10:41:20;10.90;;;4.47;;
74291;SDS011;62687;55.738;37.516;2023-03-19T10:47:15;7.85;;;3.70;;
74291;SDS011;62687;55.738;37.516;2023-03-19T10:50:02;6.60;;;3.67;;
74291;SDS011;62687;55.738;37.516;2023-03-19T10:52:51;10.05;;;3.88;;
74291;SDS011;62687;55.738;37.516;2023-03-19T10:55:45;11.20;;;3.17;;
74291;SDS011;62687;55.738;37.516;2023-03-19T10:59:03;8.82;;;2.90;;
74291;SDS011;62687;55.738;37.516;2023-03-19T11:01:49;9.90;;;3.22;;
74291;SDS011;62687;55.738;37.516;2023-03-19T11:04:39;6.88;;;3.50;;
74291;SDS011;62687;55.738;37.516;2023-03-19T11:07:23;8.63;;;3.25;;
74291;SDS011;62687;55.738;37.516;2023-03-19T11:10:13;7.22;;;3.58;;
74291;SDS011;62687;55.738;37.516;2023-03-19T11:12:59;5.68;;;2.88;;
74291;SDS011;62687;55.738;37.516;2023-03-19T11:15:47;8.10;;;3.10;;
74291;SDS011;62687;55.738;37.516;2023-03-19T11:18:36;7.82;;;4.05;;
74291;SDS011;62687;55.738;37.516;2023-03-19T11:21:24;14.27;;;3.30;;
74291;SDS011;62687;55.738;37.516;2023-03-19T11:24:12;8.30;;;3.05;;
74291;SDS011;62687;55.738;37.516;2023-03-19T11:26:57;9.95;;;3.40;;
74291;SDS011;62687;55.738;37.516;2023-03-19T11:29:44;7.30;;;3.42;;
74291;SDS011;62687;55.738;37.516;2023-03-19T11:51:16;4.90;;;3.20;;
74291;SDS011;62687;55.738;37.516;2023-03-19T11:54:22;5.93;;;3.05;;
74291;SDS011;62687;55.738;37.516;2023-03-19T12:11:44;13.00;;;3.90;;
74291;SDS011;62687;55.738;37.516;2023-03-19T12:14:43;6.60;;;3.10;;
74291;SDS011;62687;55.738;37.516;2023-03-19T12:20:38;6.70;;;3.60;;
74291;SDS011;62687;55.738;37.516;2023-03-19T12:24:46;9.35;;;3.85;;
74291;SDS011;62687;55.738;37.516;2023-03-19T12:32:30;8.70;;;3.90;;
74291;SDS011;62687;55.738;37.516;2023-03-19T12:35:34;8.32;;;3.83;;
74291;SDS011;62687;55.738;37.516;2023-03-19T12:41:31;15.95;;;4.07;;
74291;SDS011;62687;55.738;37.516;2023-03-19T12:44:32;6.53;;;4.00;;
74291;SDS011;62687;55.738;37.516;2023-03-19T12:47:24;11.02;;;4.90;;
74291;SDS011;62687;55.738;37.516;2023-03-19T12:50:14;5.93;;;3.63;;
74291;SDS011;62687;55.738;37.516;2023-03-19T12:53:06;12.63;;;4.40;;
74291;SDS011;62687;55.738;37.516;2023-03-19T12:59:50;7.18;;;3.90;;
74291;SDS011;62687;55.738;37.516;2023-03-19T13:02:21;11.25;;;4.32;;
74291;SDS011;62687;55.738;37.516;2023-03-19T13:05:28;6.13;;;4.10;;
74291;SDS011;62687;55.738;37.516;2023-03-19T13:08:33;11.25;;;4.40;;
74291;SDS011;62687;55.738;37.516;2023-03-19T13:11:43;9.35;;;4.45;;
74291;SDS011;62687;55.738;37.516;2023-03-19T13:23:38;8.63;;;3.85;;
74291;SDS011;62687;55.738;37.516;2023-03-19T13:26:25;9.48;;;4.30;;
74291;SDS011;62687;55.738;37.516;2023-03-19T13:32:07;8.20;;;3.90;;
74291;SDS011;62687;55.738;37.516;2023-03-19T13:38:24;8.75;;;4.22;;
74291;SDS011;62687;55.738;37.516;2023-03-19T13:41:46;6.82;;;3.95;;
74291;SDS011;62687;55.738;37.516;2023-03-19T13:50:23;8.38;;;4.13;;
74291;SDS011;62687;55.738;37.516;2023-03-19T13:53:16;15.38;;;4.65;;
74291;SDS011;62687;55.738;37.516;2023-03-19T13:56:07;9.65;;;5.22;;
74291;SDS011;62687;55.738;37.516;2023-03-19T14:03:01;56.08;;;8.18;;
74291;SDS011;62687;55.738;37.516;2023-03-19T14:10:46;15.73;;;4.35;;
74291;SDS011;62687;55.738;37.516;2023-03-19T14:13:36;13.65;;;4.28;;
74291;SDS011;62687;55.738;37.516;2023-03-19T14:16:28;7.03;;;4.03;;
74291;SDS011;62687;55.738;37.516;2023-03-19T14:19:25;8.65;;;4.50;;
74291;SDS011;62687;55.738;37.516;2023-03-19T14:28:10;10.90;;;4.30;;
74291;SDS011;62687;55.738;37.516;2023-03-19T14:30:54;13.02;;;4.78;;
74291;SDS011;62687;55.738;37.516;2023-03-19T14:33:44;7.80;;;4.38;;
74291;SDS011;62687;55.738;37.516;2023-03-19T14:39:47;13.05;;;4.28;;
74291;SDS011;62687;55.738;37.516;2023-03-19T14:57:41;12.52;;;4.20;;
74291;SDS011;62687;55.738;37.516;2023-03-19T15:00:26;10.40;;;4.30;;
74291;SDS011;62687;55.738;37.516;2023-03-19T15:03:18;18.58;;;4.45;;
74291;SDS011;62687;55.738;37.516;2023-03-19T15:06:21;10.88;;;4.00;;
74291;SDS011;62687;55.738;37.516;2023-03-19T15:18:16;11.02;;;4.95;;
74291;SDS011;62687;55.738;37.516;2023-03-19T15:21:03;10.23;;;3.60;;
74291;SDS011;62687;55.738;37.516;2023-03-19T15:23:49;7.03;;;3.70;;
74291;SDS011;62687;55.738;37.516;2023-03-19T15:26:34;7.75;;;4.10;;
74291;SDS011;62687;55.738;37.516;2023-03-19T15:29:29;9.95;;;4.32;;
74291;SDS011;62687;55.738;37.516;2023-03-19T15:35:18;10.52;;;4.05;;
74291;SDS011;62687;55.738;37.516;2023-03-19T15:38:06;8.10;;;3.95;;
74291;SDS011;62687;55.738;37.516;2023-03-19T15:40:53;8.27;;;4.13;;
74291;SDS011;62687;55.738;37.516;2023-03-19T15:43:38;9.15;;;3.90;;
74291;SDS011;62687;55.738;37.516;2023-03-19T15:46:24;8.25;;;4.15;;
74291;SDS011;62687;55.738;37.516;2023-03-19T15:49:15;6.28;;;3.72;;
74291;SDS011;62687;55.738;37.516;2023-03-19T15:52:08;8.88;;;4.95;;
74291;SDS011;62687;55.738;37.516;2023-03-19T15:54:56;9.15;;;4.00;;
74291;SDS011;62687;55.738;37.516;2023-03-19T15:57:44;10.85;;;4.40;;
74291;SDS011;62687;55.738;37.516;2023-03-19T16:00:28;8.23;;;3.92;;
74291;SDS011;62687;55.738;37.516;2023-03-19T16:03:15;12.88;;;4.88;;
74291;SDS011;62687;55.738;37.516;2023-03-19T16:06:02;12.98;;;4.43;;
74291;SDS011;62687;55.738;37.516;2023-03-19T16:08:50;10.77;;;3.47;;
74291;SDS011;62687;55.738;37.516;2023-03-19T16:11:37;8.20;;;3.78;;
74291;SDS011;62687;55.738;37.516;2023-03-19T16:17:15;8.13;;;4.25;;
74291;SDS011;62687;55.738;37.516;2023-03-19T16:20:02;8.80;;;4.30;;
74291;SDS011;62687;55.738;37.516;2023-03-19T16:22:53;7.75;;;4.00;;
74291;SDS011;62687;55.738;37.516;2023-03-19T16:25:42;8.75;;;4.20;;
74291;SDS011;62687;55.738;37.516;2023-03-19T16:28:27;10.15;;;4.97;;
74291;SDS011;62687;55.738;37.516;2023-03-19T16:31:22;8.98;;;4.03;;
74291;SDS011;62687;55.738;37.516;2023-03-19T16:34:20;7.85;;;3.90;;
74291;SDS011;62687;55.738;37.516;2023-03-19T16:43:16;10.10;;;3.78;;
74291;SDS011;62687;55.738;37.516;2023-03-19T16:46:07;9.30;;;4.38;;
74291;SDS011;62687;55.738;37.516;2023-03-19T16:48:55;9.93;;;4.15;;
74291;SDS011;62687;55.738;37.516;2023-03-19T16:51:39;11.63;;;4.13;;
74291;SDS011;62687;55.738;37.516;2023-03-19T16:54:23;7.30;;;3.50;;
74291;SDS011;62687;55.738;37.516;2023-03-19T16:57:09;6.60;;;3.22;;
74291;SDS011;62687;55.738;37.516;2023-03-19T16:59:55;11.20;;;3.80;;
74291;SDS011;62687;55.738;37.516;2023-03-19T17:02:40;14.15;;;4.43;;
74291;SDS011;62687;55.738;37.516;2023-03-19T17:05:25;8.80;;;3.85;;
74291;SDS011;62687;55.738;37.516;2023-03-19T17:08:12;6.40;;;3.65;;
74291;SDS011;62687;55.738;37.516;2023-03-19T17:10:56;7.15;;;3.55;;
74291;SDS011;62687;55.738;37.516;2023-03-19T17:13:41;11.18;;;3.17;;
74291;SDS011;62687;55.738;37.516;2023-03-19T17:16:25;9.73;;;3.03;;
74291;SDS011;62687;55.738;37.516;2023-03-19T17:19:13;14.50;;;3.67;;
74291;SDS011;62687;55.738;37.516;2023-03-19T17:22:01;11.27;;;3.58;;
74291;SDS011;62687;55.738;37.516;2023-03-19T17:24:45;10.20;;;4.45;;
74291;SDS011;62687;55.738;37.516;2023-03-19T17:27:29;11.80;;;4.15;;
74291;SDS011;62687;55.738;37.516;2023-03-19T17:30:14;10.70;;;3.75;;
74291;SDS011;62687;55.738;37.516;2023-03-19T17:32:59;19.40;;;4.13;;
74291;SDS011;62687;55.738;37.516;2023-03-19T17:35:43;9.63;;;3.63;;
74291;SDS011;62687;55.738;37.516;2023-03-19T17:38:30;13.20;;;4.15;;
74291;SDS011;62687;55.738;37.516;2023-03-19T17:41:16;8.65;;;3.63;;
74291;SDS011;62687;55.738;37.516;2023-03-19T17:44:02;12.75;;;4.20;;
74291;SDS011;62687;55.738;37.516;2023-03-19T17:46:53;14.75;;;3.88;;
74291;SDS011;62687;55.738;37.516;2023-03-19T17:49:38;11.70;;;4.97;;
74291;SDS011;62687;55.738;37.516;2023-03-19T17:52:24;9.25;;;4.05;;
74291;SDS011;62687;55.738;37.516;2023-03-19T17:55:13;8.32;;;4.05;;
74291;SDS011;62687;55.738;37.516;2023-03-19T17:57:59;8.73;;;3.58;;
74291;SDS011;62687;55.738;37.516;2023-03-19T18:00:47;11.02;;;4.03;;
74291;SDS011;62687;55.738;37.516;2023-03-19T18:03:33;7.88;;;3.15;;
74291;SDS011;62687;55.738;37.516;2023-03-19T18:06:19;8.93;;;3.55;;
74291;SDS011;62687;55.738;37.516;2023-03-19T18:09:05;10.38;;;3.85;;
74291;SDS011;62687;55.738;37.516;2023-03-19T18:11:49;13.00;;;3.90;;
74291;SDS011;62687;55.738;37.516;2023-03-19T18:14:33;12.02;;;3.97;;
74291;SDS011;62687;55.738;37.516;2023-03-19T18:17:17;9.07;;;4.75;;
74291;SDS011;62687;55.738;37.516;2023-03-19T18:20:03;12.55;;;4.82;;
74291;SDS011;62687;55.738;37.516;2023-03-19T18:22:47;12.35;;;5.07;;
74291;SDS011;62687;55.738;37.516;2023-03-19T18:25:31;10.63;;;4.47;;
74291;SDS011;62687;55.738;37.516;2023-03-19T18:28:17;14.88;;;5.82;;
74291;SDS011;62687;55.738;37.516;2023-03-19T18:31:01;11.43;;;4.88;;
74291;SDS011;62687;55.738;37.516;2023-03-19T18:33:50;16.52;;;5.18;;
74291;SDS011;62687;55.738;37.516;2023-03-19T18:36:39;13.45;;;4.85;;
74291;SDS011;62687;55.738;37.516;2023-03-19T18:39:24;14.77;;;4.55;;
74291;SDS011;62687;55.738;37.516;2023-03-19T18:42:09;8.77;;;3.75;;
74291;SDS011;62687;55.738;37.516;2023-03-19T18:44:55;8.60;;;3.88;;
74291;SDS011;62687;55.738;37.516;2023-03-19T18:47:39;10.88;;;4.80;;
74291;SDS011;62687;55.738;37.516;2023-03-19T18:50:28;11.48;;;4.28;;
74291;SDS011;62687;55.738;37.516;2023-03-19T18:53:15;10.50;;;4.40;;
74291;SDS011;62687;55.738;37.516;2023-03-19T18:55:59;9.40;;;4.45;;
74291;SDS011;62687;55.738;37.516;2023-03-19T18:58:46;12.10;;;4.50;;
74291;SDS011;62687;55.738;37.516;2023-03-19T19:01:31;17.42;;;4.50;;
74291;SDS011;62687;55.738;37.516;2023-03-19T19:04:15;9.60;;;4.03;;